Detall de PIREP

Printer-friendly versionPDF version

[2014/11/10 14:04:00]
Flight IATA:CT3408
Pilot Number:026
Company ICAO:CAT
Aircraft Type:DC85/A
PAX:132
Aircraft Registration:PAX
Departing Airport: LEBL
Destination Airport: LSGG
Alternate Airport:LFLL
Online: VATSIM
Route:DALIN/N420F300- UN870 DIBER/N450F300 UN870 MAXIR UN853 OKTET/N310F280- UN853 KINES
Flight Level:F280
No Slew and time accel
No pause
Crash detect
Detect pilot in Cockpit between each 30 and 45 minutes
14:04 Zero fuel Weight: 178353 Lbs, Fuel Weight: 29938 Lbs
14:04 VATSIM:LEBL 101330Z 34004KT 270V020 9999 FEW030 15/10 Q1012 NOSIG
14:04 VATSIM:LSGG 101350Z 29002KT 7000 -RA FEW003 BKN010 10/10 Q1012 NOSIG
14:04 CT3408
14:08 Parking Brakes off
14:18 Take-off
14:18 Take off Weight: 207121 Lbs
14:18 Wind: 278º @ 003 Knots Heading: 245º
14:18 POS N41º 16´ 57´´ E002º 04´ 30´´
14:18 Gear Up: 158 Knots
14:18 Flaps:2 at 158 Knots
14:18 Gear Down: 163 Knots
14:19 Gear Up: 182 Knots
14:19 Flaps:1 at 197 Knots
14:20 Flaps:0 at 229 Knots
14:33 Wind:194º@010 Knots Heading: 016º Ground Speed: 450 Knots Altitude 26640 ft
14:34 TOC
14:34 Fuel Weight: 23841 Lb
14:48 Wind:341º@014 Knots Heading: 039º Ground Speed: 458 Knots Altitude 27900 ft
15:03 Wind:328º@012 Knots Heading: 027º Ground Speed: 463 Knots Altitude 27923 ft
15:09 TOD
15:09 Fuel Weight: 15275 Lb
15:18 Wind:273º@004 Knots Heading: 348º Ground Speed: 362 Knots Altitude 15561 ft
15:30 Flaps:1 at 162 Knots
15:31 Flaps:2 at 201 Knots
15:32 Gear Down: 219 Knots
15:32 Flaps:3 at 203 Knots
15:33 Wind:263º@002 Knots Heading: 224º Ground Speed: 206 Knots Altitude 3877 ft
15:34 Flaps:4 at 147 Knots
15:35 Flaps:5 at 136 Knots
15:36 TouchDown:Rate -206 ft/min Speed: 127 Knots
15:36 VATSIM:LSGG 101520Z VRB01KT 9999 FEW006 SCT010 BKN018 10/10 Q1012 NOSIG
15:36 Land
15:36 Wind:263º@002 Knots
15:36 Heading: 211º
15:36 Flight Duration: 01:18
15:36 Landing Weight: 190745 Lbs
15:36 POS N46º 14´ 11´´ E006º 06´ 25´´
15:41 Parking brakes on
15:41 Block to Block Duration: 01:33
15:41 Final Fuel: 12045 Lbls
15:41 Spent Fuel: 17892 Lbls
15:41 Flight Length: 502 NM
15:41 TOD Land Length: 131 NM

Exportar CSV

Powered by Drupal - Modified by Danger4k